sensor_id;sensor_type;location;lat;lon;timestamp;pressure;altitude;pressure_sealevel;temperature;humidity
66486;BME280;53303;47.476;8.084;2024-03-06T00:00:59;95295.22;;;18.87;44.57
66486;BME280;53303;47.476;8.084;2024-03-06T00:03:24;95292.72;;;18.89;44.40
66486;BME280;53303;47.476;8.084;2024-03-06T00:05:52;95292.47;;;18.93;44.38
66486;BME280;53303;47.476;8.084;2024-03-06T00:08:17;95300.25;;;18.94;44.43
66486;BME280;53303;47.476;8.084;2024-03-06T00:10:43;95308.56;;;18.94;44.48
66486;BME280;53303;47.476;8.084;2024-03-06T00:13:08;95301.53;;;18.88;44.52
66486;BME280;53303;47.476;8.084;2024-03-06T00:15:34;95302.78;;;18.92;44.55
66486;BME280;53303;47.476;8.084;2024-03-06T00:17:59;95309.06;;;18.93;44.29
66486;BME280;53303;47.476;8.084;2024-03-06T00:20:26;95316.59;;;18.92;44.46
66486;BME280;53303;47.476;8.084;2024-03-06T00:22:51;95321.38;;;18.92;44.31
66486;BME280;53303;47.476;8.084;2024-03-06T00:25:19;95324.41;;;18.94;44.37
66486;BME280;53303;47.476;8.084;2024-03-06T00:27:45;95327.66;;;18.92;44.57
66486;BME280;53303;47.476;8.084;2024-03-06T00:30:10;95309.81;;;18.88;44.69
66486;BME280;53303;47.476;8.084;2024-03-06T00:32:36;95314.84;;;18.89;44.61
66486;BME280;53303;47.476;8.084;2024-03-06T00:35:01;95319.38;;;18.92;44.64
66486;BME280;53303;47.476;8.084;2024-03-06T00:37:27;95328.41;;;18.93;44.60
66486;BME280;53303;47.476;8.084;2024-03-06T00:39:52;95330.66;;;18.89;44.56
66486;BME280;53303;47.476;8.084;2024-03-06T00:42:17;95328.16;;;18.91;44.59
66486;BME280;53303;47.476;8.084;2024-03-06T00:44:43;95330.44;;;18.87;44.67
66486;BME280;53303;47.476;8.084;2024-03-06T00:47:08;95333.19;;;18.87;44.70
66486;BME280;53303;47.476;8.084;2024-03-06T00:49:33;95333.44;;;18.89;44.50
66486;BME280;53303;47.476;8.084;2024-03-06T00:52:02;95340.00;;;18.91;44.67
66486;BME280;53303;47.476;8.084;2024-03-06T00:54:29;95338.47;;;18.90;44.55
66486;BME280;53303;47.476;8.084;2024-03-06T00:56:57;95334.47;;;18.91;44.68
66486;BME280;53303;47.476;8.084;2024-03-06T00:59:25;95333.44;;;18.89;44.63
66486;BME280;53303;47.476;8.084;2024-03-06T01:01:50;95346.28;;;18.92;44.61
66486;BME280;53303;47.476;8.084;2024-03-06T01:04:16;95345.53;;;18.91;44.55
66486;BME280;53303;47.476;8.084;2024-03-06T01:06:42;95345.53;;;18.91;44.71
66486;BME280;53303;47.476;8.084;2024-03-06T01:09:07;95344.50;;;18.89;44.49
66486;BME280;53303;47.476;8.084;2024-03-06T01:11:33;95346.28;;;18.92;44.61
66486;BME280;53303;47.476;8.084;2024-03-06T01:13:58;95333.69;;;18.85;44.61
66486;BME280;53303;47.476;8.084;2024-03-06T01:16:24;95336.69;;;18.87;44.65
66486;BME280;53303;47.476;8.084;2024-03-06T01:18:52;95335.47;;;18.88;44.52
66486;BME280;53303;47.476;8.084;2024-03-06T01:21:18;95322.09;;;18.81;44.75
66486;BME280;53303;47.476;8.084;2024-03-06T01:23:46;95330.91;;;18.85;44.57
66486;BME280;53303;47.476;8.084;2024-03-06T01:26:11;95332.69;;;18.82;44.77
66486;BME280;53303;47.476;8.084;2024-03-06T01:28:37;95337.72;;;18.90;44.75
66486;BME280;53303;47.476;8.084;2024-03-06T01:31:02;95342.47;;;18.89;44.61
66486;BME280;53303;47.476;8.084;2024-03-06T01:33:28;95346.03;;;18.90;44.52
66486;BME280;53303;47.476;8.084;2024-03-06T01:35:53;95344.25;;;18.87;44.63
66486;BME280;53303;47.476;8.084;2024-03-06T01:38:18;95357.56;;;18.88;44.71
66486;BME280;53303;47.476;8.084;2024-03-06T01:40:44;95349.53;;;18.85;44.59
66486;BME280;53303;47.476;8.084;2024-03-06T01:43:21;95350.03;;;18.89;44.54
66486;BME280;53303;47.476;8.084;2024-03-06T01:45:47;95357.56;;;18.88;44.69
66486;BME280;53303;47.476;8.084;2024-03-06T01:48:13;95357.06;;;18.90;44.68
66486;BME280;53303;47.476;8.084;2024-03-06T01:50:40;95352.78;;;18.89;44.54
66486;BME280;53303;47.476;8.084;2024-03-06T01:53:06;95348.75;;;18.84;44.47
66486;BME280;53303;47.476;8.084;2024-03-06T01:55:31;95346.28;;;18.86;44.60
66486;BME280;53303;47.476;8.084;2024-03-06T01:57:59;95347.75;;;18.87;44.64
66486;BME280;53303;47.476;8.084;2024-03-06T02:00:27;95346.75;;;18.85;44.60
66486;BME280;53303;47.476;8.084;2024-03-06T02:02:53;95338.22;;;18.82;44.57
66486;BME280;53303;47.476;8.084;2024-03-06T02:05:19;95344.75;;;18.85;44.71
66486;BME280;53303;47.476;8.084;2024-03-06T02:07:47;95352.03;;;18.88;44.69
66486;BME280;53303;47.476;8.084;2024-03-06T02:10:14;95343.50;;;18.86;44.53
66486;BME280;53303;47.476;8.084;2024-03-06T02:12:40;95349.28;;;18.88;44.66
66486;BME280;53303;47.476;8.084;2024-03-06T02:15:06;95348.53;;;18.88;44.64
66486;BME280;53303;47.476;8.084;2024-03-06T02:17:35;95347.00;;;18.87;44.84
66486;BME280;53303;47.476;8.084;2024-03-06T02:20:01;95344.00;;;18.85;44.58
66486;BME280;53303;47.476;8.084;2024-03-06T02:22:31;95345.75;;;18.82;44.51
66486;BME280;53303;47.476;8.084;2024-03-06T02:24:56;95335.16;;;18.80;44.56
66486;BME280;53303;47.476;8.084;2024-03-06T02:27:24;95333.44;;;18.83;44.48
66486;BME280;53303;47.476;8.084;2024-03-06T02:29:49;95340.97;;;18.82;44.62
66486;BME280;53303;47.476;8.084;2024-03-06T02:32:15;95338.69;;;18.81;44.71
66486;BME280;53303;47.476;8.084;2024-03-06T02:34:43;95347.25;;;18.83;44.79
66486;BME280;53303;47.476;8.084;2024-03-06T02:37:11;95338.69;;;18.81;44.58
66486;BME280;53303;47.476;8.084;2024-03-06T02:39:36;95340.97;;;18.82;44.77
66486;BME280;53303;47.476;8.084;2024-03-06T02:42:01;95341.19;;;18.79;44.75
66486;BME280;53303;47.476;8.084;2024-03-06T02:44:27;95338.44;;;18.79;44.76
66486;BME280;53303;47.476;8.084;2024-03-06T02:46:53;95348.22;;;18.80;44.60
66486;BME280;53303;47.476;8.084;2024-03-06T02:49:18;95352.03;;;18.82;44.83
66486;BME280;53303;47.476;8.084;2024-03-06T02:51:44;95348.22;;;18.80;44.81
66486;BME280;53303;47.476;8.084;2024-03-06T02:54:09;95353.53;;;18.83;44.71
66486;BME280;53303;47.476;8.084;2024-03-06T02:56:38;95353.53;;;18.83;44.66
66486;BME280;53303;47.476;8.084;2024-03-06T02:59:05;95357.56;;;18.82;44.68
66486;BME280;53303;47.476;8.084;2024-03-06T03:01:31;95351.25;;;18.82;44.67
66486;BME280;53303;47.476;8.084;2024-03-06T03:03:59;95354.03;;;18.82;44.77
66486;BME280;53303;47.476;8.084;2024-03-06T03:06:24;95350.03;;;18.83;44.81
66486;BME280;53303;47.476;8.084;2024-03-06T03:08:50;95353.00;;;18.79;44.72
66486;BME280;53303;47.476;8.084;2024-03-06T03:11:15;95329.88;;;18.65;44.76
66486;BME280;53303;47.476;8.084;2024-03-06T03:13:41;95364.59;;;18.83;44.71
66486;BME280;53303;47.476;8.084;2024-03-06T03:16:18;95350.53;;;18.81;44.69
66486;BME280;53303;47.476;8.084;2024-03-06T03:18:44;95337.16;;;18.63;44.75
66486;BME280;53303;47.476;8.084;2024-03-06T03:21:10;95360.34;;;18.82;44.68
66486;BME280;53303;47.476;8.084;2024-03-06T03:23:36;95362.31;;;18.82;44.79
66486;BME280;53303;47.476;8.084;2024-03-06T03:26:01;95363.09;;;18.82;44.63
66486;BME280;53303;47.476;8.084;2024-03-06T03:28:29;95356.06;;;18.81;44.81
66486;BME280;53303;47.476;8.084;2024-03-06T03:30:54;95353.28;;;18.81;44.66
66486;BME280;53303;47.476;8.084;2024-03-06T03:33:20;95342.19;;;18.76;44.64
66486;BME280;53303;47.476;8.084;2024-03-06T03:35:45;95339.44;;;18.76;44.70
66486;BME280;53303;47.476;8.084;2024-03-06T03:38:13;95346.22;;;18.80;44.64
66486;BME280;53303;47.476;8.084;2024-03-06T03:40:38;95337.41;;;18.76;44.66
66486;BME280;53303;47.476;8.084;2024-03-06T03:43:04;95346.22;;;18.80;44.70
66486;BME280;53303;47.476;8.084;2024-03-06T03:45:35;95353.00;;;18.79;44.58
66486;BME280;53303;47.476;8.084;2024-03-06T03:48:01;95350.53;;;18.81;44.77
66486;BME280;53303;47.476;8.084;2024-03-06T03:50:30;95348.97;;;18.75;44.63
66486;BME280;53303;47.476;8.084;2024-03-06T03:52:57;95360.56;;;18.79;44.84
66486;BME280;53303;47.476;8.084;2024-03-06T03:55:24;95360.56;;;18.79;44.79
66486;BME280;53303;47.476;8.084;2024-03-06T03:57:50;95367.56;;;18.80;44.62
66486;BME280;53303;47.476;8.084;2024-03-06T04:00:16;95365.31;;;18.78;44.76
66486;BME280;53303;47.476;8.084;2024-03-06T04:02:41;95374.38;;;18.79;44.77
66486;BME280;53303;47.476;8.084;2024-03-06T04:05:07;95371.84;;;18.75;44.83
66486;BME280;53303;47.476;8.084;2024-03-06T04:07:33;95368.81;;;18.73;44.92
66486;BME280;53303;47.476;8.084;2024-03-06T04:10:01;95375.59;;;18.72;44.58
66486;BME280;53303;47.476;8.084;2024-03-06T04:12:27;95387.41;;;18.78;44.74
66486;BME280;53303;47.476;8.084;2024-03-06T04:14:55;95374.63;;;18.75;44.78
66486;BME280;53303;47.476;8.084;2024-03-06T04:17:20;95388.94;;;18.74;44.73
66486;BME280;53303;47.476;8.084;2024-03-06T04:19:48;95383.91;;;18.72;44.74
66486;BME280;53303;47.476;8.084;2024-03-06T04:22:14;95393.19;;;18.75;44.77
66486;BME280;53303;47.476;8.084;2024-03-06T04:24:43;95398.22;;;18.76;44.98
66486;BME280;53303;47.476;8.084;2024-03-06T04:27:08;95400.50;;;18.78;44.79
66486;BME280;53303;47.476;8.084;2024-03-06T04:29:34;95397.97;;;18.74;44.92
66486;BME280;53303;47.476;8.084;2024-03-06T04:32:01;95404.25;;;18.75;44.81
66486;BME280;53303;47.476;8.084;2024-03-06T04:34:27;95399.22;;;18.73;44.91
66486;BME280;53303;47.476;8.084;2024-03-06T04:36:52;95403.50;;;18.74;45.00
66486;BME280;53303;47.476;8.084;2024-03-06T04:39:20;95401.75;;;18.77;44.95
66486;BME280;53303;47.476;8.084;2024-03-06T04:41:45;95397.22;;;18.74;44.96
66486;BME280;53303;47.476;8.084;2024-03-06T04:44:11;95390.41;;;18.63;44.83
66486;BME280;53303;47.476;8.084;2024-03-06T04:46:36;95405.53;;;18.74;44.92
66486;BME280;53303;47.476;8.084;2024-03-06T04:49:02;95408.53;;;18.76;44.82
66486;BME280;53303;47.476;8.084;2024-03-06T04:51:30;95404.25;;;18.69;44.70
66486;BME280;53303;47.476;8.084;2024-03-06T04:53:58;95420.84;;;18.75;44.99
66486;BME280;53303;47.476;8.084;2024-03-06T04:56:23;95413.81;;;18.74;44.80
66486;BME280;53303;47.476;8.084;2024-03-06T04:58:49;95413.81;;;18.74;44.85
66486;BME280;53303;47.476;8.084;2024-03-06T05:01:14;95418.84;;;18.75;45.13
66486;BME280;53303;47.476;8.084;2024-03-06T05:03:42;95416.31;;;18.72;45.40
66486;BME280;53303;47.476;8.084;2024-03-06T05:06:08;95423.09;;;18.76;45.10
66486;BME280;53303;47.476;8.084;2024-03-06T05:08:33;95432.66;;;18.75;44.72
66486;BME280;53303;47.476;8.084;2024-03-06T05:11:00;95428.38;;;18.74;44.41
66486;BME280;53303;47.476;8.084;2024-03-06T05:13:25;95428.38;;;18.74;44.39
66486;BME280;53303;47.476;8.084;2024-03-06T05:15:51;95432.16;;;18.77;44.33
66486;BME280;53303;47.476;8.084;2024-03-06T05:18:19;95429.91;;;18.75;43.82
66486;BME280;53303;47.476;8.084;2024-03-06T05:20:45;95430.66;;;18.76;43.48
66486;BME280;53303;47.476;8.084;2024-03-06T05:23:11;95432.13;;;18.71;43.17
66486;BME280;53303;47.476;8.084;2024-03-06T05:25:37;95438.19;;;18.75;43.29
66486;BME280;53303;47.476;8.084;2024-03-06T05:28:03;95431.91;;;18.75;43.24
66486;BME280;53303;47.476;8.084;2024-03-06T05:30:29;95439.44;;;18.74;43.09
66486;BME280;53303;47.476;8.084;2024-03-06T05:32:55;95435.91;;;18.68;43.17
66486;BME280;53303;47.476;8.084;2024-03-06T05:35:21;95445.47;;;18.73;43.16
66486;BME280;53303;47.476;8.084;2024-03-06T05:37:46;95451.25;;;18.75;42.83
66486;BME280;53303;47.476;8.084;2024-03-06T05:40:14;95442.44;;;18.71;43.15
66486;BME280;53303;47.476;8.084;2024-03-06T05:42:39;95450.50;;;18.74;43.25
66486;BME280;53303;47.476;8.084;2024-03-06T05:45:05;95451.22;;;18.69;43.25
66486;BME280;53303;47.476;8.084;2024-03-06T05:47:36;95449.50;;;18.72;43.34
66486;BME280;53303;47.476;8.084;2024-03-06T05:50:07;95466.34;;;18.74;43.20
66486;BME280;53303;47.476;8.084;2024-03-06T05:52:33;95476.13;;;18.75;43.45
66486;BME280;53303;47.476;8.084;2024-03-06T05:55:04;95478.88;;;18.75;43.36
66486;BME280;53303;47.476;8.084;2024-03-06T05:57:32;95477.38;;;18.68;43.33
66486;BME280;53303;47.476;8.084;2024-03-06T05:59:57;95471.31;;;18.70;43.42
66486;BME280;53303;47.476;8.084;2024-03-06T06:02:23;95477.63;;;18.70;43.46
66486;BME280;53303;47.476;8.084;2024-03-06T06:04:48;95488.19;;;18.72;43.54
66486;BME280;53303;47.476;8.084;2024-03-06T06:07:17;95484.66;;;18.71;43.44
66486;BME280;53303;47.476;8.084;2024-03-06T06:09:44;95484.41;;;18.75;43.49
66486;BME280;53303;47.476;8.084;2024-03-06T06:12:10;95484.41;;;18.69;43.49
66486;BME280;53303;47.476;8.084;2024-03-06T06:14:35;95491.69;;;18.72;43.59
66486;BME280;53303;47.476;8.084;2024-03-06T06:17:03;95503.75;;;18.75;43.78
66486;BME280;53303;47.476;8.084;2024-03-06T06:19:28;95500.47;;;18.71;43.57
66486;BME280;53303;47.476;8.084;2024-03-06T06:21:58;95499.50;;;18.74;43.53
66486;BME280;53303;47.476;8.084;2024-03-06T06:24:24;95501.47;;;18.68;43.57
66486;BME280;53303;47.476;8.084;2024-03-06T06:26:50;95517.59;;;18.75;43.74
66486;BME280;53303;47.476;8.084;2024-03-06T06:29:15;95507.25;;;18.70;43.93
66486;BME280;53303;47.476;8.084;2024-03-06T06:31:40;95517.81;;;18.71;44.00
66486;BME280;53303;47.476;8.084;2024-03-06T06:34:06;95514.31;;;18.71;43.58
66486;BME280;53303;47.476;8.084;2024-03-06T06:36:31;95521.63;;;18.74;43.87
66486;BME280;53303;47.476;8.084;2024-03-06T06:38:59;95522.84;;;18.73;43.59
66486;BME280;53303;47.476;8.084;2024-03-06T06:41:31;95525.88;;;18.75;43.94
66486;BME280;53303;47.476;8.084;2024-03-06T06:43:56;95524.88;;;18.72;43.80
66486;BME280;53303;47.476;8.084;2024-03-06T06:46:22;95518.84;;;18.74;43.79
66486;BME280;53303;47.476;8.084;2024-03-06T06:48:47;95527.13;;;18.74;43.94
66486;BME280;53303;47.476;8.084;2024-03-06T06:51:17;95525.63;;;18.73;43.98
66486;BME280;53303;47.476;8.084;2024-03-06T06:53:43;95529.91;;;18.74;43.88
66486;BME280;53303;47.476;8.084;2024-03-06T06:56:08;95537.41;;;18.73;43.98
66486;BME280;53303;47.476;8.084;2024-03-06T06:58:33;95525.09;;;18.69;44.01
66486;BME280;53303;47.476;8.084;2024-03-06T07:00:59;95533.41;;;18.69;44.14
66486;BME280;53303;47.476;8.084;2024-03-06T07:03:25;95537.66;;;18.70;43.95
66486;BME280;53303;47.476;8.084;2024-03-06T07:05:55;95537.66;;;18.70;44.10
66486;BME280;53303;47.476;8.084;2024-03-06T07:08:20;95545.22;;;18.75;44.10
66486;BME280;53303;47.476;8.084;2024-03-06T07:10:46;95546.22;;;18.72;44.03
66486;BME280;53303;47.476;8.084;2024-03-06T07:13:11;95545.94;;;18.70;44.29
66486;BME280;53303;47.476;8.084;2024-03-06T07:15:37;95541.69;;;18.69;44.14
66486;BME280;53303;47.476;8.084;2024-03-06T07:18:02;95551.75;;;18.72;44.08
66486;BME280;53303;47.476;8.084;2024-03-06T07:20:28;95539.19;;;18.71;44.20
66486;BME280;53303;47.476;8.084;2024-03-06T07:22:57;95542.44;;;18.69;44.18
66486;BME280;53303;47.476;8.084;2024-03-06T07:25:24;95549.50;;;18.76;44.21
66486;BME280;53303;47.476;8.084;2024-03-06T07:27:50;95554.78;;;18.74;44.14
66486;BME280;53303;47.476;8.084;2024-03-06T07:30:15;95548.72;;;18.70;44.22
66486;BME280;53303;47.476;8.084;2024-03-06T07:32:41;95552.28;;;18.76;44.21
66486;BME280;53303;47.476;8.084;2024-03-06T07:35:06;95558.78;;;18.73;44.14
66486;BME280;53303;47.476;8.084;2024-03-06T07:37:34;95568.13;;;18.75;44.37
66486;BME280;53303;47.476;8.084;2024-03-06T07:40:02;95565.84;;;18.74;43.99
66486;BME280;53303;47.476;8.084;2024-03-06T07:42:30;95563.31;;;18.70;44.27
66486;BME280;53303;47.476;8.084;2024-03-06T07:44:55;95547.44;;;18.59;44.20
66486;BME280;53303;47.476;8.084;2024-03-06T07:47:23;95536.88;;;18.58;44.23
66486;BME280;53303;47.476;8.084;2024-03-06T07:49:48;95543.41;;;18.60;44.35
66486;BME280;53303;47.476;8.084;2024-03-06T07:52:18;95559.28;;;18.71;44.42
66486;BME280;53303;47.476;8.084;2024-03-06T07:54:43;95570.59;;;18.73;44.29
66486;BME280;53303;47.476;8.084;2024-03-06T07:57:08;95562.03;;;18.71;44.59
66486;BME280;53303;47.476;8.084;2024-03-06T07:59:35;95571.88;;;18.72;44.35
66486;BME280;53303;47.476;8.084;2024-03-06T08:02:03;95579.16;;;18.75;44.43
66486;BME280;53303;47.476;8.084;2024-03-06T08:04:36;95581.16;;;18.75;44.32
66486;BME280;53303;47.476;8.084;2024-03-06T08:07:01;95589.44;;;18.75;44.45
66486;BME280;53303;47.476;8.084;2024-03-06T08:09:29;95589.44;;;18.69;44.35
66486;BME280;53303;47.476;8.084;2024-03-06T08:11:54;95588.44;;;18.72;44.48
66486;BME280;53303;47.476;8.084;2024-03-06T08:14:22;95594.97;;;18.75;44.39
66486;BME280;53303;47.476;8.084;2024-03-06T08:16:50;95598.53;;;18.75;44.40
66486;BME280;53303;47.476;8.084;2024-03-06T08:19:16;95595.47;;;18.73;44.41
66486;BME280;53303;47.476;8.084;2024-03-06T08:21:41;95591.44;;;18.69;44.42
66486;BME280;53303;47.476;8.084;2024-03-06T08:24:06;95594.22;;;18.74;44.27
66486;BME280;53303;47.476;8.084;2024-03-06T08:26:32;95588.19;;;18.70;44.50
66486;BME280;53303;47.476;8.084;2024-03-06T08:28:57;95597.50;;;18.73;44.47
66486;BME280;53303;47.476;8.084;2024-03-06T08:31:23;95601.00;;;18.73;44.39
66486;BME280;53303;47.476;8.084;2024-03-06T08:33:48;95600.50;;;18.75;44.56
66486;BME280;53303;47.476;8.084;2024-03-06T08:36:13;95589.66;;;18.65;44.36
66486;BME280;53303;47.476;8.084;2024-03-06T08:38:39;95595.44;;;18.68;44.38
66486;BME280;53303;47.476;8.084;2024-03-06T08:41:06;95593.16;;;18.66;44.37
66486;BME280;53303;47.476;8.084;2024-03-06T08:43:31;95601.50;;;18.72;44.54
66486;BME280;53303;47.476;8.084;2024-03-06T08:45:59;95595.22;;;18.71;44.43
66486;BME280;53303;47.476;8.084;2024-03-06T08:48:25;95601.50;;;18.72;44.71
66486;BME280;53303;47.476;8.084;2024-03-06T08:50:50;95601.50;;;18.72;44.50
66486;BME280;53303;47.476;8.084;2024-03-06T08:53:16;95607.31;;;18.74;44.60
66486;BME280;53303;47.476;8.084;2024-03-06T08:55:42;95610.81;;;18.74;44.59
66486;BME280;53303;47.476;8.084;2024-03-06T08:58:07;95612.06;;;18.73;44.42
66486;BME280;53303;47.476;8.084;2024-03-06T09:00:34;95617.59;;;18.73;44.59
66486;BME280;53303;47.476;8.084;2024-03-06T09:03:00;95610.03;;;18.68;44.31
66486;BME280;53303;47.476;8.084;2024-03-06T09:05:25;95616.56;;;18.71;44.50
66486;BME280;53303;47.476;8.084;2024-03-06T09:07:54;95624.16;;;18.76;44.33
66486;BME280;53303;47.476;8.084;2024-03-06T09:10:22;95625.13;;;18.73;44.53
66486;BME280;53303;47.476;8.084;2024-03-06T09:12:48;95619.34;;;18.71;44.39
66486;BME280;53303;47.476;8.084;2024-03-06T09:15:14;95616.31;;;18.69;44.57
66486;BME280;53303;47.476;8.084;2024-03-06T09:17:40;95609.97;;;18.62;44.53
66486;BME280;53303;47.476;8.084;2024-03-06T09:20:07;95635.19;;;18.76;44.59
66486;BME280;53303;47.476;8.084;2024-03-06T09:22:42;95635.69;;;18.74;44.54
66486;BME280;53303;47.476;8.084;2024-03-06T09:25:12;95638.94;;;18.73;44.41
66486;BME280;53303;47.476;8.084;2024-03-06T09:27:39;95637.22;;;18.75;44.40
66486;BME280;53303;47.476;8.084;2024-03-06T09:30:04;95632.44;;;18.76;44.37
66486;BME280;53303;47.476;8.084;2024-03-06T09:32:30;95643.25;;;18.74;44.61
66486;BME280;53303;47.476;8.084;2024-03-06T09:34:55;95633.16;;;18.71;44.58
66486;BME280;53303;47.476;8.084;2024-03-06T09:37:21;95646.25;;;18.76;44.49
66486;BME280;53303;47.476;8.084;2024-03-06T09:39:48;95646.25;;;18.76;44.59
66486;BME280;53303;47.476;8.084;2024-03-06T09:42:15;95645.22;;;18.73;44.58
66486;BME280;53303;47.476;8.084;2024-03-06T09:44:40;95634.13;;;18.68;44.58
66486;BME280;53303;47.476;8.084;2024-03-06T09:47:06;95654.56;;;18.76;44.51
66486;BME280;53303;47.476;8.084;2024-03-06T09:49:34;95644.72;;;18.75;44.63
66486;BME280;53303;47.476;8.084;2024-03-06T09:52:01;95639.91;;;18.64;44.50
66486;BME280;53303;47.476;8.084;2024-03-06T09:54:28;95655.31;;;18.76;44.59
66486;BME280;53303;47.476;8.084;2024-03-06T09:56:54;95639.94;;;18.70;44.28
66486;BME280;53303;47.476;8.084;2024-03-06T09:59:22;95644.72;;;18.69;44.63
66486;BME280;53303;47.476;8.084;2024-03-06T10:01:57;95656.56;;;18.75;44.56
66486;BME280;53303;47.476;8.084;2024-03-06T10:04:24;95648.00;;;18.73;44.67
66486;BME280;53303;47.476;8.084;2024-03-06T10:06:50;95641.97;;;18.75;44.77
66486;BME280;53303;47.476;8.084;2024-03-06T10:09:23;95649.25;;;18.72;44.65
66486;BME280;53303;47.476;8.084;2024-03-06T10:11:49;95647.50;;;18.75;44.65
66486;BME280;53303;47.476;8.084;2024-03-06T10:14:14;95654.06;;;18.77;44.67
66486;BME280;53303;47.476;8.084;2024-03-06T10:16:57;95660.31;;;18.72;44.59
66486;BME280;53303;47.476;8.084;2024-03-06T10:19:26;95649.25;;;18.72;44.66
66486;BME280;53303;47.476;8.084;2024-03-06T10:21:57;95653.81;;;18.75;44.70
66486;BME280;53303;47.476;8.084;2024-03-06T10:24:25;95654.06;;;18.77;44.75
66486;BME280;53303;47.476;8.084;2024-03-06T10:26:51;95658.81;;;18.77;44.60
66486;BME280;53303;47.476;8.084;2024-03-06T10:29:19;95649.25;;;18.72;44.53
66486;BME280;53303;47.476;8.084;2024-03-06T10:31:55;95659.81;;;18.74;44.64
66486;BME280;53303;47.476;8.084;2024-03-06T10:34:23;95659.59;;;18.77;44.83
66486;BME280;53303;47.476;8.084;2024-03-06T10:36:57;95648.22;;;18.70;44.40
66486;BME280;53303;47.476;8.084;2024-03-06T10:39:26;95657.81;;;18.74;44.59
66486;BME280;53303;47.476;8.084;2024-03-06T10:41:53;95658.06;;;18.76;44.63
66486;BME280;53303;47.476;8.084;2024-03-06T10:44:25;95655.03;;;18.74;44.65
66486;BME280;53303;47.476;8.084;2024-03-06T10:49:24;95661.59;;;18.77;44.50
66486;BME280;53303;47.476;8.084;2024-03-06T10:51:51;95657.06;;;18.74;44.63
66486;BME280;53303;47.476;8.084;2024-03-06T10:54:18;95660.84;;;18.76;44.54
66486;BME280;53303;47.476;8.084;2024-03-06T10:56:44;95658.81;;;18.77;44.63
66486;BME280;53303;47.476;8.084;2024-03-06T10:59:15;95660.09;;;18.76;44.43
66486;BME280;53303;47.476;8.084;2024-03-06T11:01:44;95661.81;;;18.73;44.44
66486;BME280;53303;47.476;8.084;2024-03-06T11:04:11;95665.34;;;18.74;44.61
66486;BME280;53303;47.476;8.084;2024-03-06T11:06:38;95663.81;;;18.73;44.54
66486;BME280;53303;47.476;8.084;2024-03-06T11:09:03;95663.59;;;18.76;44.42
66486;BME280;53303;47.476;8.084;2024-03-06T11:11:29;95667.41;;;18.79;44.42
66486;BME280;53303;47.476;8.084;2024-03-06T11:13:55;95660.34;;;18.78;44.46
66486;BME280;53303;47.476;8.084;2024-03-06T11:16:31;95662.84;;;18.76;44.44
66486;BME280;53303;47.476;8.084;2024-03-06T11:19:11;95658.06;;;18.76;44.46
66486;BME280;53303;47.476;8.084;2024-03-06T11:21:45;95660.09;;;18.76;44.43
66486;BME280;53303;47.476;8.084;2024-03-06T11:24:16;95643.22;;;18.68;44.41
66486;BME280;53303;47.476;8.084;2024-03-06T11:26:49;95661.09;;;18.78;44.43
66486;BME280;53303;47.476;8.084;2024-03-06T11:29:18;95651.56;;;18.79;44.49
66486;BME280;53303;47.476;8.084;2024-03-06T11:32:01;95659.34;;;18.75;44.18
66486;BME280;53303;47.476;8.084;2024-03-06T11:34:28;95647.47;;;18.69;44.43
66486;BME280;53303;47.476;8.084;2024-03-06T11:36:58;95654.06;;;18.77;44.36
66486;BME280;53303;47.476;8.084;2024-03-06T11:39:27;95657.09;;;18.79;44.34
66486;BME280;53303;47.476;8.084;2024-03-06T11:41:53;95657.09;;;18.79;44.48
66486;BME280;53303;47.476;8.084;2024-03-06T11:44:22;95653.28;;;18.77;44.53
66486;BME280;53303;47.476;8.084;2024-03-06T11:49:27;95643.50;;;18.76;44.37
66486;BME280;53303;47.476;8.084;2024-03-06T11:52:04;95649.28;;;18.78;44.46
66486;BME280;53303;47.476;8.084;2024-03-06T11:54:31;95655.81;;;18.80;44.57
66486;BME280;53303;47.476;8.084;2024-03-06T11:56:59;95655.06;;;18.80;44.62
66486;BME280;53303;47.476;8.084;2024-03-06T11:59:31;95652.81;;;18.78;44.48
66486;BME280;53303;47.476;8.084;2024-03-06T12:01:59;95638.47;;;18.74;44.47
66486;BME280;53303;47.476;8.084;2024-03-06T12:04:27;95649.09;;;18.81;44.66
66486;BME280;53303;47.476;8.084;2024-03-06T12:06:57;95647.06;;;18.82;44.51
66486;BME280;53303;47.476;8.084;2024-03-06T12:09:24;95636.44;;;18.75;44.27
66486;BME280;53303;47.476;8.084;2024-03-06T12:11:49;95644.31;;;18.82;44.48
66486;BME280;53303;47.476;8.084;2024-03-06T12:14:17;95638.78;;;18.82;44.55
66486;BME280;53303;47.476;8.084;2024-03-06T12:16:44;95645.09;;;18.82;44.52
66486;BME280;53303;47.476;8.084;2024-03-06T12:19:19;95634.97;;;18.79;44.51
66486;BME280;53303;47.476;8.084;2024-03-06T12:21:47;95630.19;;;18.80;44.57
66486;BME280;53303;47.476;8.084;2024-03-06T12:24:18;95638.28;;;18.83;44.45
66486;BME280;53303;47.476;8.084;2024-03-06T12:26:44;95637.25;;;18.81;44.54
66486;BME280;53303;47.476;8.084;2024-03-06T12:29:11;95632.97;;;18.80;44.54
66486;BME280;53303;47.476;8.084;2024-03-06T12:31:41;95629.25;;;18.83;44.46
66486;BME280;53303;47.476;8.084;2024-03-06T12:34:07;95633.50;;;18.84;44.61
66486;BME280;53303;47.476;8.084;2024-03-06T12:36:34;95624.66;;;18.80;44.61
66486;BME280;53303;47.476;8.084;2024-03-06T12:39:00;95632.25;;;18.85;44.48
66486;BME280;53303;47.476;8.084;2024-03-06T12:41:27;95618.44;;;18.85;44.51
66486;BME280;53303;47.476;8.084;2024-03-06T12:43:56;95608.31;;;18.76;44.57
66486;BME280;53303;47.476;8.084;2024-03-06T12:46:23;95616.38;;;18.80;44.34
66486;BME280;53303;47.476;8.084;2024-03-06T12:48:52;95624.22;;;18.87;44.54
66486;BME280;53303;47.476;8.084;2024-03-06T12:51:17;95620.47;;;18.85;44.47
66486;BME280;53303;47.476;8.084;2024-03-06T12:53:45;95608.53;;;18.73;44.60
66486;BME280;53303;47.476;8.084;2024-03-06T12:56:11;95623.22;;;18.85;44.52
66486;BME280;53303;47.476;8.084;2024-03-06T12:58:39;95613.91;;;18.82;44.69
66486;BME280;53303;47.476;8.084;2024-03-06T13:01:04;95622.97;;;18.82;44.54
66486;BME280;53303;47.476;8.084;2024-03-06T13:03:32;95623.47;;;18.87;44.57